sensor_id;sensor_type;location;lat;lon;timestamp;P1;durP1;ratioP1;P2;durP2;ratioP2
43813;SDS011;29669;55.706;37.656;2024-03-23T00:54:21;34.38;;;16.10;;
43813;SDS011;29669;55.706;37.656;2024-03-23T00:56:47;35.92;;;16.75;;
43813;SDS011;29669;55.706;37.656;2024-03-23T00:59:14;31.08;;;16.67;;
43813;SDS011;29669;55.706;37.656;2024-03-23T01:01:40;29.20;;;15.55;;
43813;SDS011;29669;55.706;37.656;2024-03-23T01:04:07;36.05;;;16.55;;
43813;SDS011;29669;55.706;37.656;2024-03-23T01:06:33;34.17;;;15.50;;
43813;SDS011;29669;55.706;37.656;2024-03-23T01:09:00;34.33;;;16.52;;
43813;SDS011;29669;55.706;37.656;2024-03-23T01:11:27;31.50;;;15.50;;
43813;SDS011;29669;55.706;37.656;2024-03-23T01:13:53;29.92;;;15.38;;
43813;SDS011;29669;55.706;37.656;2024-03-23T01:16:22;32.95;;;16.52;;
43813;SDS011;29669;55.706;37.656;2024-03-23T01:18:48;34.75;;;17.65;;
43813;SDS011;29669;55.706;37.656;2024-03-23T01:21:15;36.65;;;16.98;;
43813;SDS011;29669;55.706;37.656;2024-03-23T01:23:41;32.28;;;15.88;;
43813;SDS011;29669;55.706;37.656;2024-03-23T01:26:08;34.17;;;17.35;;
43813;SDS011;29669;55.706;37.656;2024-03-23T01:28:34;29.75;;;16.23;;
43813;SDS011;29669;55.706;37.656;2024-03-23T01:31:01;34.78;;;17.02;;
43813;SDS011;29669;55.706;37.656;2024-03-23T01:33:27;31.95;;;16.38;;
43813;SDS011;29669;55.706;37.656;2024-03-23T01:35:54;33.85;;;16.20;;
43813;SDS011;29669;55.706;37.656;2024-03-23T01:38:20;37.30;;;16.70;;
43813;SDS011;29669;55.706;37.656;2024-03-23T01:40:47;34.20;;;17.08;;
43813;SDS011;29669;55.706;37.656;2024-03-23T01:43:13;35.22;;;15.80;;
43813;SDS011;29669;55.706;37.656;2024-03-23T01:45:40;35.92;;;16.63;;
43813;SDS011;29669;55.706;37.656;2024-03-23T01:48:06;34.13;;;17.15;;
43813;SDS011;29669;55.706;37.656;2024-03-23T01:50:33;32.00;;;16.75;;
43813;SDS011;29669;55.706;37.656;2024-03-23T01:53:01;35.13;;;16.95;;
43813;SDS011;29669;55.706;37.656;2024-03-23T01:55:29;26.52;;;15.02;;
43813;SDS011;29669;55.706;37.656;2024-03-23T01:57:58;31.00;;;15.50;;
43813;SDS011;29669;55.706;37.656;2024-03-23T02:00:25;32.65;;;15.35;;
43813;SDS011;29669;55.706;37.656;2024-03-23T02:02:54;34.85;;;16.17;;
43813;SDS011;29669;55.706;37.656;2024-03-23T02:05:21;34.45;;;16.77;;
43813;SDS011;29669;55.706;37.656;2024-03-23T02:07:48;30.85;;;16.23;;
43813;SDS011;29669;55.706;37.656;2024-03-23T02:10:15;35.40;;;15.32;;
43813;SDS011;29669;55.706;37.656;2024-03-23T02:12:41;33.65;;;16.25;;
43813;SDS011;29669;55.706;37.656;2024-03-23T02:15:08;33.42;;;16.58;;
43813;SDS011;29669;55.706;37.656;2024-03-23T02:17:35;34.83;;;17.10;;
43813;SDS011;29669;55.706;37.656;2024-03-23T02:20:05;32.17;;;15.50;;
43813;SDS011;29669;55.706;37.656;2024-03-23T02:22:36;32.00;;;14.60;;
43813;SDS011;29669;55.706;37.656;2024-03-23T02:25:06;32.28;;;15.57;;
43813;SDS011;29669;55.706;37.656;2024-03-23T02:27:33;34.40;;;15.98;;
43813;SDS011;29669;55.706;37.656;2024-03-23T02:30:05;30.80;;;17.23;;
43813;SDS011;29669;55.706;37.656;2024-03-23T02:32:32;34.00;;;17.13;;
43813;SDS011;29669;55.706;37.656;2024-03-23T02:34:59;26.98;;;15.25;;
43813;SDS011;29669;55.706;37.656;2024-03-23T02:37:25;27.67;;;14.98;;
43813;SDS011;29669;55.706;37.656;2024-03-23T02:39:52;30.45;;;15.77;;
43813;SDS011;29669;55.706;37.656;2024-03-23T02:42:18;31.92;;;16.23;;
43813;SDS011;29669;55.706;37.656;2024-03-23T02:44:45;32.53;;;14.30;;
43813;SDS011;29669;55.706;37.656;2024-03-23T02:47:11;32.00;;;15.35;;
43813;SDS011;29669;55.706;37.656;2024-03-23T02:49:38;32.70;;;15.65;;
43813;SDS011;29669;55.706;37.656;2024-03-23T02:52:04;33.80;;;15.50;;
43813;SDS011;29669;55.706;37.656;2024-03-23T02:54:31;32.30;;;15.38;;
43813;SDS011;29669;55.706;37.656;2024-03-23T02:56:58;28.50;;;14.75;;
43813;SDS011;29669;55.706;37.656;2024-03-23T02:59:24;28.08;;;14.77;;
43813;SDS011;29669;55.706;37.656;2024-03-23T03:01:50;33.45;;;14.60;;
43813;SDS011;29669;55.706;37.656;2024-03-23T03:04:17;30.00;;;15.43;;
43813;SDS011;29669;55.706;37.656;2024-03-23T03:06:46;33.42;;;15.75;;
43813;SDS011;29669;55.706;37.656;2024-03-23T03:09:13;28.10;;;15.70;;
43813;SDS011;29669;55.706;37.656;2024-03-23T03:11:39;25.98;;;14.20;;
43813;SDS011;29669;55.706;37.656;2024-03-23T03:14:06;30.48;;;15.85;;
43813;SDS011;29669;55.706;37.656;2024-03-23T03:16:33;28.38;;;14.55;;
43813;SDS011;29669;55.706;37.656;2024-03-23T03:19:00;29.17;;;14.10;;
43813;SDS011;29669;55.706;37.656;2024-03-23T03:21:27;30.20;;;14.90;;
43813;SDS011;29669;55.706;37.656;2024-03-23T03:23:54;29.55;;;14.38;;
43813;SDS011;29669;55.706;37.656;2024-03-23T03:26:22;30.58;;;14.52;;
43813;SDS011;29669;55.706;37.656;2024-03-23T03:28:50;29.90;;;15.57;;
43813;SDS011;29669;55.706;37.656;2024-03-23T03:31:20;27.30;;;14.38;;
43813;SDS011;29669;55.706;37.656;2024-03-23T03:33:46;32.08;;;14.73;;
43813;SDS011;29669;55.706;37.656;2024-03-23T03:36:15;28.70;;;14.73;;
43813;SDS011;29669;55.706;37.656;2024-03-23T03:38:42;30.42;;;15.20;;
43813;SDS011;29669;55.706;37.656;2024-03-23T03:41:09;35.35;;;16.17;;
43813;SDS011;29669;55.706;37.656;2024-03-23T03:43:35;29.05;;;13.90;;
43813;SDS011;29669;55.706;37.656;2024-03-23T03:46:02;33.20;;;15.60;;
43813;SDS011;29669;55.706;37.656;2024-03-23T03:48:28;30.35;;;15.63;;
43813;SDS011;29669;55.706;37.656;2024-03-23T03:50:55;30.65;;;15.00;;
43813;SDS011;29669;55.706;37.656;2024-03-23T03:53:22;34.40;;;14.77;;
43813;SDS011;29669;55.706;37.656;2024-03-23T03:55:48;26.63;;;14.43;;
43813;SDS011;29669;55.706;37.656;2024-03-23T03:58:15;26.67;;;14.75;;
43813;SDS011;29669;55.706;37.656;2024-03-23T04:00:41;31.90;;;15.63;;
43813;SDS011;29669;55.706;37.656;2024-03-23T04:03:08;30.80;;;15.15;;
43813;SDS011;29669;55.706;37.656;2024-03-23T04:05:34;30.30;;;15.65;;
43813;SDS011;29669;55.706;37.656;2024-03-23T04:08:01;34.28;;;15.90;;
43813;SDS011;29669;55.706;37.656;2024-03-23T04:10:28;36.90;;;17.17;;
43813;SDS011;29669;55.706;37.656;2024-03-23T04:12:54;30.42;;;14.35;;
43813;SDS011;29669;55.706;37.656;2024-03-23T04:15:21;32.72;;;14.85;;
43813;SDS011;29669;55.706;37.656;2024-03-23T04:17:47;29.25;;;14.98;;
43813;SDS011;29669;55.706;37.656;2024-03-23T04:20:14;29.25;;;14.50;;
43813;SDS011;29669;55.706;37.656;2024-03-23T04:22:43;30.33;;;13.52;;
43813;SDS011;29669;55.706;37.656;2024-03-23T04:25:09;33.38;;;15.55;;
43813;SDS011;29669;55.706;37.656;2024-03-23T04:27:36;26.42;;;14.50;;
43813;SDS011;29669;55.706;37.656;2024-03-23T04:30:03;27.73;;;14.82;;
43813;SDS011;29669;55.706;37.656;2024-03-23T04:32:36;26.30;;;14.98;;
43813;SDS011;29669;55.706;37.656;2024-03-23T04:35:03;26.58;;;14.05;;
43813;SDS011;29669;55.706;37.656;2024-03-23T04:37:36;26.67;;;13.82;;
43813;SDS011;29669;55.706;37.656;2024-03-23T04:40:03;27.15;;;14.55;;
43813;SDS011;29669;55.706;37.656;2024-03-23T04:42:31;25.25;;;13.70;;
43813;SDS011;29669;55.706;37.656;2024-03-23T04:44:58;27.30;;;13.75;;
43813;SDS011;29669;55.706;37.656;2024-03-23T04:47:24;29.92;;;14.30;;
43813;SDS011;29669;55.706;37.656;2024-03-23T04:49:52;25.55;;;14.07;;
43813;SDS011;29669;55.706;37.656;2024-03-23T04:52:19;28.98;;;14.50;;
43813;SDS011;29669;55.706;37.656;2024-03-23T04:54:45;23.63;;;13.23;;
43813;SDS011;29669;55.706;37.656;2024-03-23T04:57:12;25.58;;;14.02;;
43813;SDS011;29669;55.706;37.656;2024-03-23T04:59:46;23.48;;;13.68;;
43813;SDS011;29669;55.706;37.656;2024-03-23T05:02:13;28.05;;;13.48;;
43813;SDS011;29669;55.706;37.656;2024-03-23T05:04:41;26.25;;;13.40;;
43813;SDS011;29669;55.706;37.656;2024-03-23T05:07:08;23.70;;;13.02;;
43813;SDS011;29669;55.706;37.656;2024-03-23T05:09:34;24.73;;;13.40;;
43813;SDS011;29669;55.706;37.656;2024-03-23T05:12:01;23.67;;;12.85;;
43813;SDS011;29669;55.706;37.656;2024-03-23T05:14:28;22.92;;;12.15;;
43813;SDS011;29669;55.706;37.656;2024-03-23T05:16:55;23.10;;;13.65;;
43813;SDS011;29669;55.706;37.656;2024-03-23T05:19:22;22.30;;;12.80;;
43813;SDS011;29669;55.706;37.656;2024-03-23T05:21:48;24.60;;;14.13;;
43813;SDS011;29669;55.706;37.656;2024-03-23T05:24:15;23.45;;;12.57;;
43813;SDS011;29669;55.706;37.656;2024-03-23T05:26:42;24.25;;;13.45;;
43813;SDS011;29669;55.706;37.656;2024-03-23T05:29:09;21.90;;;12.50;;
43813;SDS011;29669;55.706;37.656;2024-03-23T05:31:42;25.75;;;13.05;;
43813;SDS011;29669;55.706;37.656;2024-03-23T05:34:09;22.73;;;13.05;;
43813;SDS011;29669;55.706;37.656;2024-03-23T05:36:35;20.83;;;12.15;;
43813;SDS011;29669;55.706;37.656;2024-03-23T05:39:03;20.52;;;12.27;;
43813;SDS011;29669;55.706;37.656;2024-03-23T05:41:29;24.77;;;11.88;;
43813;SDS011;29669;55.706;37.656;2024-03-23T05:43:56;19.98;;;11.30;;
43813;SDS011;29669;55.706;37.656;2024-03-23T05:46:22;18.90;;;11.30;;
43813;SDS011;29669;55.706;37.656;2024-03-23T05:48:50;22.42;;;12.77;;
43813;SDS011;29669;55.706;37.656;2024-03-23T05:51:26;25.75;;;12.45;;
43813;SDS011;29669;55.706;37.656;2024-03-23T05:53:52;25.60;;;13.23;;
43813;SDS011;29669;55.706;37.656;2024-03-23T05:56:19;24.25;;;13.13;;
43813;SDS011;29669;55.706;37.656;2024-03-23T05:58:46;21.63;;;12.35;;
43813;SDS011;29669;55.706;37.656;2024-03-23T06:01:12;26.52;;;12.82;;
43813;SDS011;29669;55.706;37.656;2024-03-23T06:03:39;21.70;;;12.65;;
43813;SDS011;29669;55.706;37.656;2024-03-23T06:06:10;23.35;;;13.05;;
43813;SDS011;29669;55.706;37.656;2024-03-23T06:08:38;20.27;;;13.38;;
43813;SDS011;29669;55.706;37.656;2024-03-23T06:11:05;23.23;;;12.73;;
43813;SDS011;29669;55.706;37.656;2024-03-23T06:13:32;25.48;;;13.10;;
43813;SDS011;29669;55.706;37.656;2024-03-23T06:16:00;24.13;;;12.00;;
43813;SDS011;29669;55.706;37.656;2024-03-23T06:18:27;20.17;;;12.18;;
43813;SDS011;29669;55.706;37.656;2024-03-23T06:20:54;19.38;;;11.90;;
43813;SDS011;29669;55.706;37.656;2024-03-23T06:23:20;22.00;;;12.57;;
43813;SDS011;29669;55.706;37.656;2024-03-23T06:25:47;19.48;;;11.48;;
43813;SDS011;29669;55.706;37.656;2024-03-23T06:28:13;22.55;;;11.68;;
43813;SDS011;29669;55.706;37.656;2024-03-23T06:30:40;22.13;;;11.60;;
43813;SDS011;29669;55.706;37.656;2024-03-23T06:33:06;23.90;;;13.25;;
43813;SDS011;29669;55.706;37.656;2024-03-23T06:35:33;23.45;;;12.48;;
43813;SDS011;29669;55.706;37.656;2024-03-23T06:37:59;18.38;;;11.68;;
43813;SDS011;29669;55.706;37.656;2024-03-23T06:40:26;20.27;;;11.20;;
43813;SDS011;29669;55.706;37.656;2024-03-23T06:42:53;20.92;;;10.57;;
43813;SDS011;29669;55.706;37.656;2024-03-23T06:45:19;21.27;;;11.38;;
43813;SDS011;29669;55.706;37.656;2024-03-23T06:47:49;23.15;;;11.27;;
43813;SDS011;29669;55.706;37.656;2024-03-23T06:50:16;17.50;;;10.27;;
43813;SDS011;29669;55.706;37.656;2024-03-23T06:52:43;19.02;;;10.77;;
43813;SDS011;29669;55.706;37.656;2024-03-23T06:55:09;21.75;;;11.98;;
43813;SDS011;29669;55.706;37.656;2024-03-23T06:57:36;16.83;;;10.57;;
43813;SDS011;29669;55.706;37.656;2024-03-23T07:00:02;18.80;;;10.32;;
43813;SDS011;29669;55.706;37.656;2024-03-23T07:02:30;16.35;;;10.95;;
43813;SDS011;29669;55.706;37.656;2024-03-23T07:04:57;23.23;;;11.88;;
43813;SDS011;29669;55.706;37.656;2024-03-23T07:07:23;16.90;;;10.30;;
43813;SDS011;29669;55.706;37.656;2024-03-23T07:09:50;16.08;;;10.07;;
43813;SDS011;29669;55.706;37.656;2024-03-23T07:12:16;22.48;;;12.98;;
43813;SDS011;29669;55.706;37.656;2024-03-23T07:14:43;14.85;;;9.98;;
43813;SDS011;29669;55.706;37.656;2024-03-23T07:17:09;14.38;;;9.60;;
43813;SDS011;29669;55.706;37.656;2024-03-23T07:19:37;15.13;;;9.18;;
43813;SDS011;29669;55.706;37.656;2024-03-23T07:22:03;16.33;;;9.70;;
43813;SDS011;29669;55.706;37.656;2024-03-23T07:24:30;15.95;;;9.65;;
43813;SDS011;29669;55.706;37.656;2024-03-23T07:26:57;17.42;;;9.25;;
43813;SDS011;29669;55.706;37.656;2024-03-23T07:29:24;17.63;;;9.75;;
43813;SDS011;29669;55.706;37.656;2024-03-23T07:31:51;17.00;;;10.18;;
43813;SDS011;29669;55.706;37.656;2024-03-23T07:34:17;18.85;;;9.48;;
43813;SDS011;29669;55.706;37.656;2024-03-23T07:36:44;14.60;;;9.85;;
43813;SDS011;29669;55.706;37.656;2024-03-23T07:39:10;21.20;;;9.50;;
43813;SDS011;29669;55.706;37.656;2024-03-23T07:41:37;17.95;;;9.63;;
43813;SDS011;29669;55.706;37.656;2024-03-23T07:44:04;13.55;;;9.13;;
43813;SDS011;29669;55.706;37.656;2024-03-23T07:46:30;17.83;;;9.43;;
43813;SDS011;29669;55.706;37.656;2024-03-23T07:48:57;13.90;;;8.65;;
43813;SDS011;29669;55.706;37.656;2024-03-23T07:51:24;17.80;;;8.93;;
43813;SDS011;29669;55.706;37.656;2024-03-23T07:53:53;15.45;;;9.20;;
43813;SDS011;29669;55.706;37.656;2024-03-23T07:56:20;14.00;;;8.50;;
43813;SDS011;29669;55.706;37.656;2024-03-23T07:58:48;15.07;;;9.38;;
43813;SDS011;29669;55.706;37.656;2024-03-23T08:01:16;14.57;;;8.98;;
43813;SDS011;29669;55.706;37.656;2024-03-23T08:03:44;13.85;;;9.43;;
43813;SDS011;29669;55.706;37.656;2024-03-23T08:06:12;14.80;;;9.05;;
43813;SDS011;29669;55.706;37.656;2024-03-23T08:08:40;13.30;;;9.25;;
43813;SDS011;29669;55.706;37.656;2024-03-23T08:11:08;15.10;;;9.40;;
43813;SDS011;29669;55.706;37.656;2024-03-23T08:13:35;16.63;;;9.13;;
43813;SDS011;29669;55.706;37.656;2024-03-23T08:16:03;17.40;;;9.23;;
43813;SDS011;29669;55.706;37.656;2024-03-23T08:18:30;16.63;;;8.82;;
43813;SDS011;29669;55.706;37.656;2024-03-23T08:21:01;11.93;;;8.38;;
43813;SDS011;29669;55.706;37.656;2024-03-23T08:23:29;16.73;;;8.50;;
43813;SDS011;29669;55.706;37.656;2024-03-23T08:26:03;13.60;;;7.90;;
43813;SDS011;29669;55.706;37.656;2024-03-23T08:28:30;17.77;;;9.15;;
43813;SDS011;29669;55.706;37.656;2024-03-23T08:31:00;12.00;;;8.20;;
43813;SDS011;29669;55.706;37.656;2024-03-23T08:33:28;13.77;;;9.35;;
43813;SDS011;29669;55.706;37.656;2024-03-23T08:35:58;15.57;;;7.97;;
43813;SDS011;29669;55.706;37.656;2024-03-23T08:38:27;15.18;;;8.85;;
43813;SDS011;29669;55.706;37.656;2024-03-23T08:43:29;12.68;;;8.57;;
43813;SDS011;29669;55.706;37.656;2024-03-23T08:46:06;10.38;;;7.18;;
43813;SDS011;29669;55.706;37.656;2024-03-23T08:48:37;14.38;;;7.55;;
43813;SDS011;29669;55.706;37.656;2024-03-23T08:51:05;15.40;;;8.13;;
43813;SDS011;29669;55.706;37.656;2024-03-23T08:53:32;12.07;;;8.15;;
43813;SDS011;29669;55.706;37.656;2024-03-23T08:56:00;14.50;;;7.80;;
43813;SDS011;29669;55.706;37.656;2024-03-23T08:58:27;10.55;;;7.53;;
43813;SDS011;29669;55.706;37.656;2024-03-23T09:00:55;10.82;;;7.65;;
43813;SDS011;29669;55.706;37.656;2024-03-23T09:03:26;14.07;;;7.57;;
43813;SDS011;29669;55.706;37.656;2024-03-23T09:05:52;12.60;;;8.02;;
43813;SDS011;29669;55.706;37.656;2024-03-23T09:08:25;10.73;;;7.22;;
43813;SDS011;29669;55.706;37.656;2024-03-23T09:10:54;11.68;;;6.90;;
43813;SDS011;29669;55.706;37.656;2024-03-23T09:13:21;10.68;;;7.28;;
43813;SDS011;29669;55.706;37.656;2024-03-23T09:15:48;9.18;;;6.97;;
43813;SDS011;29669;55.706;37.656;2024-03-23T09:18:16;12.18;;;7.55;;
43813;SDS011;29669;55.706;37.656;2024-03-23T09:20:43;9.75;;;7.35;;
43813;SDS011;29669;55.706;37.656;2024-03-23T09:23:09;11.38;;;6.82;;
43813;SDS011;29669;55.706;37.656;2024-03-23T09:25:36;11.63;;;7.13;;
43813;SDS011;29669;55.706;37.656;2024-03-23T09:28:07;9.68;;;6.28;;
43813;SDS011;29669;55.706;37.656;2024-03-23T09:30:36;12.20;;;7.18;;
43813;SDS011;29669;55.706;37.656;2024-03-23T09:33:09;12.98;;;7.53;;
43813;SDS011;29669;55.706;37.656;2024-03-23T09:35:45;13.25;;;7.15;;
43813;SDS011;29669;55.706;37.656;2024-03-23T09:38:12;12.38;;;7.20;;
43813;SDS011;29669;55.706;37.656;2024-03-23T09:40:42;10.00;;;7.07;;
43813;SDS011;29669;55.706;37.656;2024-03-23T09:43:10;10.85;;;7.25;;
43813;SDS011;29669;55.706;37.656;2024-03-23T09:45:40;12.88;;;7.82;;
43813;SDS011;29669;55.706;37.656;2024-03-23T09:48:08;7.53;;;6.13;;
43813;SDS011;29669;55.706;37.656;2024-03-23T09:50:41;13.13;;;7.68;;
43813;SDS011;29669;55.706;37.656;2024-03-23T09:53:12;9.23;;;6.97;;
43813;SDS011;29669;55.706;37.656;2024-03-23T09:55:43;8.80;;;6.50;;
43813;SDS011;29669;55.706;37.656;2024-03-23T09:58:14;12.45;;;7.63;;
43813;SDS011;29669;55.706;37.656;2024-03-23T10:00:48;10.60;;;7.25;;
43813;SDS011;29669;55.706;37.656;2024-03-23T10:03:14;10.65;;;7.28;;
43813;SDS011;29669;55.706;37.656;2024-03-23T10:05:41;13.18;;;7.30;;
43813;SDS011;29669;55.706;37.656;2024-03-23T10:08:17;14.13;;;7.38;;
43813;SDS011;29669;55.706;37.656;2024-03-23T10:10:45;11.63;;;7.13;;
43813;SDS011;29669;55.706;37.656;2024-03-23T10:13:25;11.18;;;7.38;;
43813;SDS011;29669;55.706;37.656;2024-03-23T10:15:55;11.40;;;7.35;;
43813;SDS011;29669;55.706;37.656;2024-03-23T10:18:23;10.77;;;7.68;;
43813;SDS011;29669;55.706;37.656;2024-03-23T10:20:52;10.50;;;7.25;;
43813;SDS011;29669;55.706;37.656;2024-03-23T10:23:36;12.32;;;6.75;;
43813;SDS011;29669;55.706;37.656;2024-03-23T10:26:13;11.00;;;7.75;;
43813;SDS011;29669;55.706;37.656;2024-03-23T10:31:30;10.70;;;7.70;;
43813;SDS011;29669;55.706;37.656;2024-03-23T10:34:03;15.82;;;7.20;;
43813;SDS011;29669;55.706;37.656;2024-03-23T10:36:36;11.15;;;7.88;;
43813;SDS011;29669;55.706;37.656;2024-03-23T10:39:09;12.23;;;8.02;;
43813;SDS011;29669;55.706;37.656;2024-03-23T10:41:38;14.38;;;7.15;;
43813;SDS011;29669;55.706;37.656;2024-03-23T10:44:07;14.05;;;8.30;;
43813;SDS011;29669;55.706;37.656;2024-03-23T10:46:34;10.50;;;7.55;;
43813;SDS011;29669;55.706;37.656;2024-03-23T10:49:03;11.52;;;7.85;;
43813;SDS011;29669;55.706;37.656;2024-03-23T10:51:30;14.30;;;8.95;;
43813;SDS011;29669;55.706;37.656;2024-03-23T10:53:56;15.35;;;8.38;;
43813;SDS011;29669;55.706;37.656;2024-03-23T10:56:23;13.57;;;8.38;;
43813;SDS011;29669;55.706;37.656;2024-03-23T10:58:50;15.18;;;8.00;;
43813;SDS011;29669;55.706;37.656;2024-03-23T11:01:17;14.30;;;9.02;;
43813;SDS011;29669;55.706;37.656;2024-03-23T11:03:46;17.17;;;9.13;;
43813;SDS011;29669;55.706;37.656;2024-03-23T11:09:03;14.70;;;8.00;;
43813;SDS011;29669;55.706;37.656;2024-03-23T11:11:32;15.75;;;9.40;;
43813;SDS011;29669;55.706;37.656;2024-03-23T11:14:00;14.45;;;8.63;;
43813;SDS011;29669;55.706;37.656;2024-03-23T11:16:38;13.65;;;8.68;;
43813;SDS011;29669;55.706;37.656;2024-03-23T11:22:04;14.70;;;9.32;;
43813;SDS011;29669;55.706;37.656;2024-03-23T11:24:31;13.90;;;8.68;;
43813;SDS011;29669;55.706;37.656;2024-03-23T11:26:59;16.17;;;9.18;;
43813;SDS011;29669;55.706;37.656;2024-03-23T11:29:30;11.57;;;8.15;;
43813;SDS011;29669;55.706;37.656;2024-03-23T11:31:57;12.65;;;8.52;;
43813;SDS011;29669;55.706;37.656;2024-03-23T11:34:26;12.52;;;8.98;;
43813;SDS011;29669;55.706;37.656;2024-03-23T11:37:06;14.45;;;8.80;;
43813;SDS011;29669;55.706;37.656;2024-03-23T11:39:34;13.50;;;8.40;;
43813;SDS011;29669;55.706;37.656;2024-03-23T11:42:02;14.63;;;8.95;;
43813;SDS011;29669;55.706;37.656;2024-03-23T11:44:37;17.60;;;8.80;;
43813;SDS011;29669;55.706;37.656;2024-03-23T11:47:10;15.63;;;9.93;;
43813;SDS011;29669;55.706;37.656;2024-03-23T11:49:37;13.77;;;8.95;;
43813;SDS011;29669;55.706;37.656;2024-03-23T11:52:12;15.93;;;9.73;;
43813;SDS011;29669;55.706;37.656;2024-03-23T11:54:38;15.88;;;9.68;;
43813;SDS011;29669;55.706;37.656;2024-03-23T11:57:07;17.48;;;9.95;;
43813;SDS011;29669;55.706;37.656;2024-03-23T11:59:39;14.27;;;9.07;;
43813;SDS011;29669;55.706;37.656;2024-03-23T12:02:07;14.82;;;9.75;;
43813;SDS011;29669;55.706;37.656;2024-03-23T12:04:40;16.88;;;10.50;;
43813;SDS011;29669;55.706;37.656;2024-03-23T12:07:12;16.33;;;10.35;;
43813;SDS011;29669;55.706;37.656;2024-03-23T12:10:04;15.30;;;10.05;;
43813;SDS011;29669;55.706;37.656;2024-03-23T12:12:40;17.20;;;10.15;;
43813;SDS011;29669;55.706;37.656;2024-03-23T12:15:35;18.27;;;10.90;;
43813;SDS011;29669;55.706;37.656;2024-03-23T12:18:08;19.92;;;10.93;;
43813;SDS011;29669;55.706;37.656;2024-03-23T12:20:35;16.48;;;10.43;;
43813;SDS011;29669;55.706;37.656;2024-03-23T12:23:08;18.65;;;11.23;;
43813;SDS011;29669;55.706;37.656;2024-03-23T12:25:38;17.15;;;10.73;;
43813;SDS011;29669;55.706;37.656;2024-03-23T12:28:06;17.25;;;10.95;;
43813;SDS011;29669;55.706;37.656;2024-03-23T12:30:38;19.08;;;11.32;;
43813;SDS011;29669;55.706;37.656;2024-03-23T12:33:06;18.02;;;10.93;;
43813;SDS011;29669;55.706;37.656;2024-03-23T12:35:36;21.15;;;11.48;;
43813;SDS011;29669;55.706;37.656;2024-03-23T12:42:09;20.38;;;10.90;;
43813;SDS011;29669;55.706;37.656;2024-03-23T12:44:44;22.83;;;10.88;;
43813;SDS011;29669;55.706;37.656;2024-03-23T12:55:27;20.73;;;9.75;;
43813;SDS011;29669;55.706;37.656;2024-03-23T12:58:22;20.08;;;10.70;;
43813;SDS011;29669;55.706;37.656;2024-03-23T13:11:15;19.73;;;11.80;;
43813;SDS011;29669;55.706;37.656;2024-03-23T13:14:24;22.20;;;10.10;;
43813;SDS011;29669;55.706;37.656;2024-03-23T13:27:34;21.50;;;11.50;;
43813;SDS011;29669;55.706;37.656;2024-03-23T13:30:02;17.33;;;10.23;;
43813;SDS011;29669;55.706;37.656;2024-03-23T13:32:43;17.25;;;10.88;;
43813;SDS011;29669;55.706;37.656;2024-03-23T13:35:10;17.08;;;9.82;;
43813;SDS011;29669;55.706;37.656;2024-03-23T13:37:46;17.10;;;10.32;;
43813;SDS011;29669;55.706;37.656;2024-03-23T13:40:15;19.33;;;10.57;;
43813;SDS011;29669;55.706;37.656;2024-03-23T13:42:48;20.58;;;10.90;;
43813;SDS011;29669;55.706;37.656;2024-03-23T13:47:32;19.23;;;10.27;;
43813;SDS011;29669;55.706;37.656;2024-03-23T13:49:59;14.85;;;9.48;;
43813;SDS011;29669;55.706;37.656;2024-03-23T13:52:26;21.40;;;10.68;;
43813;SDS011;29669;55.706;37.656;2024-03-23T13:54:52;20.90;;;10.55;;
43813;SDS011;29669;55.706;37.656;2024-03-23T13:57:22;18.13;;;9.25;;
43813;SDS011;29669;55.706;37.656;2024-03-23T13:59:52;17.35;;;10.50;;
43813;SDS011;29669;55.706;37.656;2024-03-23T14:02:19;15.32;;;8.57;;
43813;SDS011;29669;55.706;37.656;2024-03-23T14:04:45;17.00;;;10.55;;
43813;SDS011;29669;55.706;37.656;2024-03-23T14:07:12;14.73;;;9.63;;
43813;SDS011;29669;55.706;37.656;2024-03-23T14:09:54;15.48;;;8.65;;
43813;SDS011;29669;55.706;37.656;2024-03-23T14:12:21;14.70;;;8.77;;
43813;SDS011;29669;55.706;37.656;2024-03-23T14:15:01;14.85;;;9.15;;
43813;SDS011;29669;55.706;37.656;2024-03-23T14:18:00;15.65;;;8.95;;
43813;SDS011;29669;55.706;37.656;2024-03-23T14:20:27;19.77;;;9.77;;
43813;SDS011;29669;55.706;37.656;2024-03-23T14:22:58;15.35;;;9.05;;
43813;SDS011;29669;55.706;37.656;2024-03-23T14:25:30;15.70;;;9.55;;
43813;SDS011;29669;55.706;37.656;2024-03-23T14:28:01;13.38;;;8.50;;
43813;SDS011;29669;55.706;37.656;2024-03-23T14:31:07;13.13;;;7.75;;
43813;SDS011;29669;55.706;37.656;2024-03-23T14:33:59;12.15;;;8.57;;
43813;SDS011;29669;55.706;37.656;2024-03-23T14:36:37;14.77;;;9.30;;
43813;SDS011;29669;55.706;37.656;2024-03-23T14:39:07;12.35;;;8.13;;
43813;SDS011;29669;55.706;37.656;2024-03-23T14:41:50;14.55;;;8.57;;
43813;SDS011;29669;55.706;37.656;2024-03-23T14:44:19;14.07;;;9.15;;
43813;SDS011;29669;55.706;37.656;2024-03-23T14:46:46;12.10;;;8.50;;
43813;SDS011;29669;55.706;37.656;2024-03-23T14:49:50;13.82;;;8.25;;
43813;SDS011;29669;55.706;37.656;2024-03-23T14:52:35;11.10;;;7.70;;
43813;SDS011;29669;55.706;37.656;2024-03-23T14:55:10;11.13;;;7.30;;
43813;SDS011;29669;55.706;37.656;2024-03-23T14:58:05;12.75;;;7.97;;
43813;SDS011;29669;55.706;37.656;2024-03-23T15:00:49;15.40;;;8.45;;
43813;SDS011;29669;55.706;37.656;2024-03-23T15:03:38;15.00;;;8.90;;
43813;SDS011;29669;55.706;37.656;2024-03-23T15:06:19;14.43;;;7.60;;
43813;SDS011;29669;55.706;37.656;2024-03-23T15:08:58;12.25;;;7.78;;
43813;SDS011;29669;55.706;37.656;2024-03-23T15:11:48;16.67;;;7.40;;
43813;SDS011;29669;55.706;37.656;2024-03-23T15:14:35;10.30;;;7.60;;
43813;SDS011;29669;55.706;37.656;2024-03-23T15:17:15;10.90;;;7.85;;
43813;SDS011;29669;55.706;37.656;2024-03-23T15:20:38;10.82;;;7.72;;
43813;SDS011;29669;55.706;37.656;2024-03-23T15:23:44;15.80;;;8.30;;
43813;SDS011;29669;55.706;37.656;2024-03-23T15:29:41;12.73;;;7.70;;
43813;SDS011;29669;55.706;37.656;2024-03-23T15:32:34;10.15;;;7.70;;
43813;SDS011;29669;55.706;37.656;2024-03-23T15:35:15;8.43;;;6.88;;
43813;SDS011;29669;55.706;37.656;2024-03-23T15:38:22;10.68;;;7.55;;
43813;SDS011;29669;55.706;37.656;2024-03-23T15:41:28;17.65;;;8.18;;
43813;SDS011;29669;55.706;37.656;2024-03-23T15:44:47;12.52;;;7.82;;
43813;SDS011;29669;55.706;37.656;2024-03-23T15:47:57;12.02;;;8.15;;
43813;SDS011;29669;55.706;37.656;2024-03-23T15:50:41;9.93;;;7.85;;
43813;SDS011;29669;55.706;37.656;2024-03-23T15:53:26;12.15;;;8.02;;
43813;SDS011;29669;55.706;37.656;2024-03-23T15:56:23;13.77;;;8.48;;
43813;SDS011;29669;55.706;37.656;2024-03-23T15:59:08;11.13;;;8.10;;
43813;SDS011;29669;55.706;37.656;2024-03-23T16:02:05;11.82;;;7.43;;
43813;SDS011;29669;55.706;37.656;2024-03-23T16:04:57;11.80;;;7.97;;
43813;SDS011;29669;55.706;37.656;2024-03-23T16:07:32;14.73;;;8.60;;
43813;SDS011;29669;55.706;37.656;2024-03-23T16:10:17;11.30;;;7.60;;
43813;SDS011;29669;55.706;37.656;2024-03-23T16:12:55;12.45;;;8.32;;
43813;SDS011;29669;55.706;37.656;2024-03-23T16:15:22;11.60;;;7.18;;
43813;SDS011;29669;55.706;37.656;2024-03-23T16:17:48;10.23;;;7.03;;
43813;SDS011;29669;55.706;37.656;2024-03-23T16:20:15;12.07;;;7.35;;